Latest Weather Observations for Warrnambool

IDV60801

Issued at 4:35 am EST Wednesday 30 July 2014 (issued every 30 minutes, with the page automatically refreshed every 10 minutes)

About weather observations | Map of weather stations | Latest weather observations for VIC | Other Formats
Station Details ID: 090186 Name: WARRNAMBOOL AIRPORT NDB Lat: -38.29 Lon: 142.45 Height: 70.8 m
Data from the previous 72 hours. | See also: Recent months at Warrnambool
Date/Time
EST
Temp
°C
App
Temp
°C
Dew
Point
Rel
Hum
%
Delta-T
°C
Wind Press
QNH
hPa
Press
MSL
hPa
Rain
since 9 am
mm
Dir
 
Spd
km/h
Gust
km/h
Spd
kts
Gust
kts
30/04:30am 10.9 6.6 10.7 99 0.1 NW 24 32 13 17 1010.0 - 5.8
30/04:00am 11.4 6.5 11.2 99 0.1 NW 28 39 15 21 1010.0 1010.1 5.8
30/03:30am 10.9 7.0 10.7 99 0.1 NW 22 30 12 16 1010.3 - 5.8
30/03:00am 10.8 6.1 10.5 98 0.2 NW 26 32 14 17 1010.5 1010.6 5.8
30/02:30am 11.2 7.4 11.0 99 0.1 NW 22 30 12 16 1010.5 - 5.8
30/02:00am 11.6 7.5 11.4 99 0.1 NW 24 30 13 16 1010.6 1010.7 5.8
30/01:30am 12.0 8.8 11.8 99 0.1 WNW 20 32 11 17 1010.6 - 5.8
30/01:03am 12.1 7.4 11.9 99 0.1 WNW 28 46 15 25 1010.4 - 5.8
30/01:00am 12.1 7.0 11.9 99 0.1 WNW 30 46 16 25 1010.4 1010.5 5.8
30/12:30am 12.4 7.8 12.2 99 0.1 WNW 28 41 15 22 1010.2 - 5.8
30/12:00am 12.4 9.5 12.2 99 0.1 WNW 19 30 10 16 1010.2 1010.3 5.8
 
Date/Time
EST
Temp
°C
App
Temp
°C
Dew
Point
Rel
Hum
%
Delta-T
°C
Wind Press
QNH
hPa
Press
MSL
hPa
Rain
since 9 am
mm
Dir
 
Spd
km/h
Gust
km/h
Spd
kts
Gust
kts
29/11:30pm 12.4 8.9 12.2 99 0.1 WNW 22 32 12 17 1010.1 - 5.4
29/11:00pm 12.7 9.5 11.8 94 0.5 WNW 20 32 11 17 1009.9 1010.0 3.0
29/10:30pm 12.7 7.3 12.1 96 0.3 WNW 32 43 17 23 1009.7 - 3.0
29/10:00pm 12.5 7.5 12.3 99 0.1 NW 30 43 16 23 1009.4 1009.5 3.0
29/09:30pm 12.7 7.6 11.9 95 0.4 NW 30 39 16 21 1009.1 - 2.8
29/09:00pm 13.4 9.0 11.8 90 0.9 WNW 26 43 14 23 1008.9 1009.0 2.8
29/08:30pm 13.1 8.4 12.0 93 0.6 WNW 28 44 15 24 1008.7 - 2.8
29/08:00pm 13.0 8.5 12.5 97 0.3 NW 28 37 15 20 1008.4 1008.5 2.8
29/07:30pm 12.7 8.1 12.4 98 0.2 NW 28 33 15 18 1008.3 - 2.8
29/07:00pm 12.7 8.0 12.1 96 0.3 WNW 28 37 15 20 1007.8 1007.9 2.8
29/06:30pm 13.0 6.0 11.2 89 1.0 W 39 48 21 26 1007.9 - 2.2
29/06:25pm 13.5 7.2 11.0 85 1.3 W 35 44 19 24 1007.7 - 1.2
29/06:00pm 14.7 7.9 10.7 77 2.1 WNW 37 57 20 31 1006.7 1006.8 0.6
29/05:36pm 14.2 9.3 11.2 82 1.6 WNW 28 46 15 25 1006.5 - 0.6
29/05:30pm 14.3 8.6 11.3 82 1.6 WNW 32 46 17 25 1006.5 - 0.6
29/05:02pm 14.1 6.8 11.4 84 1.4 NW 41 59 22 32 1006.2 - 0.6
29/05:00pm 14.2 6.3 11.5 84 1.5 NW 44 59 24 32 1006.1 1006.2 0.6
29/04:31pm 13.8 7.5 12.4 91 0.8 NW 37 56 20 30 1006.1 - 0.6
29/04:30pm 13.7 7.0 12.3 91 0.8 NW 39 56 21 30 1006.0 - 0.6
29/04:06pm 14.2 6.1 12.2 88 1.1 NW 46 70 25 38 1005.6 - 0.6
29/04:00pm 14.1 6.4 12.0 87 1.1 NW 44 59 24 32 1005.7 1005.8 0.6
29/03:35pm 14.7 6.1 11.7 82 1.6 NW 48 67 26 36 1005.4 - 0.6
29/03:30pm 14.9 5.2 11.7 81 1.7 NW 54 67 29 36 1005.2 - 0.6
29/03:25pm 15.0 4.7 11.6 80 1.8 NW 57 65 31 35 1005.1 - 0.6
29/03:00pm 15.6 9.7 11.2 75 2.4 WNW 33 54 18 29 1005.1 1005.2 0.6
29/02:30pm 15.6 8.5 10.8 73 2.6 WNW 39 65 21 35 1005.0 - 0.4
29/02:00pm 15.6 8.5 12.2 80 1.9 NW 41 61 22 33 1004.8 1004.9 0.4
29/01:41pm 15.6 8.9 12.2 80 1.9 NW 39 61 21 33 1004.7 - 0.4
29/01:30pm 15.5 8.5 12.4 82 1.7 NW 41 57 22 31 1004.8 - 0.4
29/01:00pm 14.6 8.3 13.5 93 0.6 WNW 39 59 21 32 1005.1 1005.2 0.4
29/12:33pm 13.7 6.8 12.9 95 0.4 NW 41 61 22 33 1005.2 - 0.2
29/12:30pm 13.8 7.3 12.9 94 0.5 NW 39 54 21 29 1005.4 - 0.2
29/12:00pm 14.5 6.9 12.4 87 1.2 NW 44 67 24 36 1005.6 1005.7 0.0
29/11:32am 14.7 7.5 12.0 84 1.5 NW 41 59 22 32 1005.8 - 0.0
29/11:30am 14.6 7.4 11.9 84 1.5 NW 41 56 22 30 1005.8 - 0.0
29/11:15am 14.1 6.5 11.8 86 1.2 NW 43 61 23 33 1005.8 - 0.0
29/11:00am 13.9 6.4 12.1 89 1.0 NNW 43 56 23 30 1006.1 1006.2 0.0
29/10:37am 14.0 6.4 11.9 87 1.1 NW 43 61 23 33 1006.1 - 0.0
29/10:30am 13.9 6.7 11.9 88 1.1 NW 41 57 22 31 1006.1 - 0.0
29/10:09am 13.7 5.5 11.6 87 1.1 NW 46 65 25 35 1005.5 - 0.0
29/10:00am 13.9 6.5 12.3 90 0.9 NW 43 57 23 31 1005.5 1005.6 0.0
29/09:43am 13.2 5.8 11.3 88 1.0 NW 41 59 22 32 1006.1 - 0.0
29/09:30am 13.6 5.8 11.3 86 1.2 NNW 43 59 23 32 1005.8 - 0.0
29/09:00am 13.4 5.6 11.1 86 1.2 NW 43 56 23 30 1005.7 1005.8 0.8
29/08:30am 13.0 5.2 11.1 88 1.0 NNW 43 57 23 31 1005.6 - 0.8
29/08:00am 12.8 5.7 11.0 89 0.9 NNW 39 52 21 28 1006.1 1006.2 0.8
29/07:35am 12.3 5.1 10.7 90 0.8 NW 39 57 21 31 1006.1 - 0.8
29/07:30am 12.5 5.0 10.9 90 0.8 NW 41 57 22 31 1006.2 - 0.8
29/07:16am 12.4 5.3 11.0 91 0.7 NW 39 57 21 31 1006.0 - 0.8
29/07:00am 12.4 5.4 11.3 93 0.6 NNW 39 52 21 28 1006.0 1006.1 0.8
29/06:36am 12.2 5.1 10.8 91 0.7 NW 39 57 21 31 1006.0 - 0.8
29/06:30am 12.2 4.6 10.4 89 0.9 NW 41 57 22 31 1005.8 - 0.8
29/06:00am 12.9 5.2 10.1 83 1.5 NW 41 54 22 29 1005.6 1005.7 0.0
29/05:30am 12.7 4.9 9.9 83 1.4 NNW 41 59 22 32 1005.6 - 0.0
29/05:27am 12.8 5.1 10.0 83 1.4 NNW 41 59 22 32 1005.5 - 0.0
29/05:00am 12.7 4.6 9.9 83 1.4 NNW 43 59 23 32 1005.6 1005.7 0.0
29/04:50am 12.6 4.2 9.8 83 1.4 NNW 44 65 24 35 1005.7 - 0.0
29/04:30am 12.3 4.5 9.7 84 1.3 NNW 41 56 22 30 1005.9 - 0.0
29/04:00am 12.2 5.6 9.9 86 1.2 NNW 35 46 19 25 1006.0 1006.1 0.0
29/03:30am 12.4 4.6 9.8 84 1.3 NNW 41 59 22 32 1006.1 - 0.0
29/03:00am 12.1 5.0 9.7 85 1.2 NNW 37 48 20 26 1006.1 1006.2 0.0
29/02:30am 12.0 5.3 9.7 86 1.2 NNW 35 48 19 26 1006.9 - 0.0
29/02:00am 11.7 4.9 9.4 86 1.2 NNW 35 52 19 28 1007.2 1007.3 0.0
29/01:39am 12.0 5.3 9.7 86 1.2 NNW 35 54 19 29 1007.2 - 0.0
29/01:30am 11.8 5.1 9.5 86 1.2 NNW 35 46 19 25 1007.3 - 0.0
29/01:00am 11.7 4.9 9.4 86 1.2 NNW 35 52 19 28 1007.9 1008.0 0.0
29/12:30am 11.6 5.2 9.2 85 1.2 NNW 33 44 18 24 1008.3 - 0.0
29/12:00am 11.7 4.9 9.1 84 1.3 NNW 35 50 19 27 1008.8 1008.9 0.0
 
Date/Time
EST
Temp
°C
App
Temp
°C
Dew
Point
Rel
Hum
%
Delta-T
°C
Wind Press
QNH
hPa
Press
MSL
hPa
Rain
since 9 am
mm
Dir
 
Spd
km/h
Gust
km/h
Spd
kts
Gust
kts
28/11:30pm 11.5 4.6 8.7 83 1.4 NNW 35 48 19 26 1009.3 - 0.0
28/11:00pm 11.3 5.0 8.9 85 1.2 NNW 32 43 17 23 1009.5 1009.6 0.0
28/10:30pm 12.0 5.7 8.8 81 1.6 NNW 32 41 17 22 1009.9 - 0.0
28/10:00pm 12.0 5.1 8.7 80 1.6 NNW 35 48 19 26 1010.3 1010.4 0.0
28/09:30pm 11.8 5.2 8.6 81 1.6 NNW 33 43 18 23 1010.3 - 0.0
28/09:00pm 11.6 5.2 8.5 81 1.5 NNW 32 39 17 21 1010.4 1010.5 0.0
28/08:30pm 11.5 6.2 8.5 82 1.5 NNW 26 37 14 20 1010.5 - 0.0
28/08:00pm 11.4 6.5 8.4 82 1.5 N 24 32 13 17 1010.4 1010.5 0.0
28/07:30pm 10.9 7.2 7.8 81 1.5 N 17 22 9 12 1010.6 - 0.0
28/07:00pm 12.0 7.5 8.5 79 1.7 NNW 22 28 12 15 1010.5 1010.6 0.0
28/06:30pm 12.1 7.2 8.6 79 1.7 NNW 24 28 13 15 1010.7 - 0.0
28/06:00pm 12.3 7.8 8.4 77 1.9 NNW 22 30 12 16 1010.5 1010.6 0.0
28/05:30pm 13.2 8.7 8.7 74 2.3 NW 22 28 12 15 1010.4 - 0.0
28/05:00pm 14.2 8.3 9.0 71 2.7 NW 30 37 16 20 1010.2 1010.3 0.0
28/04:30pm 14.9 9.1 9.5 70 2.8 NW 30 41 16 22 1010.0 - 0.0
28/04:00pm 15.4 8.3 9.5 68 3.1 NW 37 50 20 27 1010.0 1010.1 0.0
28/03:30pm 15.8 9.0 9.2 65 3.4 NW 35 50 19 27 1010.1 - 0.0
28/03:23pm 16.0 9.8 10.1 68 3.1 NW 33 52 18 28 1010.3 - 0.0
28/03:00pm 15.9 8.4 9.3 65 3.4 NW 39 54 21 29 1010.3 1010.4 0.0
28/02:41pm 15.9 9.1 9.3 65 3.4 NW 35 54 19 29 1010.6 - 0.0
28/02:30pm 15.8 8.0 9.7 67 3.2 NW 41 56 22 30 1010.8 - 0.0
28/02:00pm 15.6 8.6 9.9 69 3.0 NW 37 48 20 26 1011.0 1011.1 0.0
28/01:30pm 14.8 7.3 9.6 71 2.7 NW 39 50 21 27 1011.6 - 0.0
28/01:00pm 15.1 7.7 9.7 70 2.8 NW 39 54 21 29 1011.9 1012.0 0.0
28/12:30pm 15.2 8.3 10.4 73 2.5 NW 37 52 20 28 1012.2 - 0.0
28/12:00pm 14.5 6.7 9.9 74 2.4 NW 41 52 22 28 1012.7 1012.9 0.0
28/11:30am 14.9 8.3 11.3 79 1.9 NW 37 46 20 25 1013.4 - 0.0
28/11:15am 14.1 7.6 10.5 79 1.9 NW 35 54 19 29 1013.5 - 0.0
28/11:00am 14.3 9.1 11.5 83 1.5 NW 30 39 16 21 1013.6 1013.7 0.0
28/10:30am 13.6 8.6 11.1 85 1.3 NNW 28 35 15 19 1013.6 - 0.0
28/10:00am 12.5 7.2 10.0 85 1.3 N 28 37 15 20 1013.6 1013.7 0.0
28/09:30am 11.7 6.7 9.4 86 1.2 N 26 33 14 18 1013.7 - 0.0
28/09:00am 10.7 5.2 9.0 89 0.8 N 28 35 15 19 1013.7 1013.8 0.0
28/08:30am 9.2 4.9 7.8 91 0.7 N 20 30 11 16 1013.6 - 0.0
28/08:00am 8.3 4.0 6.8 90 0.7 N 19 22 10 12 1014.0 1014.1 0.0
28/07:30am 8.4 3.8 6.7 89 0.8 N 20 24 11 13 1014.0 - 0.0
28/07:00am 8.5 3.9 6.3 86 1.0 N 20 24 11 13 1013.9 1014.0 0.0
28/06:30am 8.8 4.1 6.1 83 1.2 N 20 26 11 14 1013.9 - 0.0
28/06:00am 8.9 3.8 6.0 82 1.3 N 22 26 12 14 1013.8 1013.9 0.0
28/05:30am 9.3 4.3 6.4 82 1.3 N 22 28 12 15 1013.9 - 0.0
28/05:00am 9.2 4.2 6.3 82 1.3 N 22 30 12 16 1014.0 1014.1 0.0
28/04:30am 9.3 3.8 6.0 80 1.5 N 24 32 13 17 1014.0 - 0.0
28/04:00am 9.8 4.4 6.3 79 1.6 N 24 32 13 17 1014.3 1014.4 0.0
28/03:30am 9.5 4.9 6.4 81 1.4 N 20 26 11 14 1014.5 - 0.0
28/03:00am 10.4 5.8 6.5 77 1.8 N 20 28 11 15 1014.7 1014.8 0.0
28/02:30am 10.6 6.0 6.7 77 1.8 N 20 30 11 16 1015.0 - 0.0
28/02:00am 10.0 4.7 6.7 80 1.6 N 24 32 13 17 1014.8 1014.9 0.0
28/01:30am 10.5 5.2 6.6 77 1.8 NNW 24 32 13 17 1015.2 - 0.0
28/01:00am 10.3 4.6 6.6 78 1.7 NNW 26 35 14 19 1015.6 1015.7 0.0
28/12:30am 10.9 5.2 6.8 76 1.9 NNW 26 37 14 20 1015.7 - 0.0
28/12:00am 11.0 5.3 6.9 76 2.0 N 26 33 14 18 1015.8 1015.9 0.0
 
Date/Time
EST
Temp
°C
App
Temp
°C
Dew
Point
Rel
Hum
%
Delta-T
°C
Wind Press
QNH
hPa
Press
MSL
hPa
Rain
since 9 am
mm
Dir
 
Spd
km/h
Gust
km/h
Spd
kts
Gust
kts
27/11:30pm 11.3 4.6 7.2 76 2.0 N 32 43 17 23 1015.9 - 0.0
27/11:00pm 11.5 4.8 7.2 75 2.1 N 32 43 17 23 1016.4 1016.5 0.0
27/10:30pm 11.8 5.1 7.5 75 2.1 N 32 44 17 24 1016.7 - 0.0
27/10:00pm 11.2 5.7 7.5 78 1.8 N 26 33 14 18 1016.9 1017.0 0.0
27/09:30pm 10.9 5.4 7.6 80 1.6 N 26 33 14 18 1017.0 - 0.0
27/09:00pm 10.3 5.5 7.5 83 1.3 N 22 30 12 16 1017.1 1017.2 0.0
27/08:30pm 10.1 5.0 7.7 85 1.2 N 24 30 13 16 1016.9 - 0.0
27/08:00pm 9.9 5.1 7.5 85 1.1 N 22 28 12 15 1017.4 1017.5 0.0
27/07:30pm 10.4 5.7 7.8 84 1.3 N 22 28 12 15 1017.6 - 0.0
27/07:00pm 10.8 5.8 8.0 83 1.4 N 24 30 13 16 1018.0 1018.1 0.0
27/06:30pm 11.3 6.8 8.7 84 1.3 N 22 28 12 15 1017.9 - 0.0
27/06:00pm 11.3 7.4 8.7 84 1.3 N 19 24 10 13 1017.8 1017.9 0.0
27/05:30pm 11.7 7.8 8.6 81 1.5 N 19 24 10 13 1017.7 - 0.0
27/05:00pm 13.4 9.0 8.9 74 2.3 N 22 28 12 15 1017.6 1017.7 0.0
27/04:30pm 14.1 10.1 9.1 72 2.6 NNW 20 28 11 15 1017.6 - 0.0
27/04:00pm 14.3 9.2 9.3 72 2.6 NNW 26 33 14 18 1017.8 1017.9 0.0
27/03:30pm 14.6 10.0 9.6 72 2.6 NNW 24 33 13 18 1017.9 - 0.0
27/03:00pm 14.3 9.4 9.9 75 2.3 NNW 26 35 14 19 1018.0 1018.1 0.0
27/02:30pm 13.5 8.4 9.2 75 2.2 N 26 39 14 21 1018.1 - 0.0
27/02:00pm 13.9 8.1 9.5 75 2.3 N 30 41 16 22 1018.2 1018.3 0.0
27/01:30pm 14.4 8.2 9.4 72 2.6 NNW 32 44 17 24 1018.7 - 0.0
27/01:00pm 14.2 8.1 9.6 74 2.4 NNW 32 43 17 23 1019.1 1019.2 0.0
27/12:30pm 13.7 7.9 9.4 75 2.2 NNW 30 41 16 22 1020.0 - 0.0
27/12:00pm 13.5 8.1 9.4 76 2.1 NNW 28 41 15 22 1020.7 1020.8 0.0
27/11:30am 12.5 6.9 8.8 78 1.9 NNW 28 39 15 21 1021.5 - 0.0
27/11:00am 11.9 5.5 8.4 79 1.7 N 32 43 17 23 1021.5 1021.6 0.0
27/10:30am 11.5 5.1 8.7 83 1.4 N 32 43 17 23 1021.7 - 0.0
27/10:00am 11.1 5.6 10.6 97 0.3 N 30 48 16 26 1021.7 1021.8 0.0
27/09:30am 9.6 5.7 9.6 100 0.0 N 20 28 11 15 1021.9 - 0.0
27/09:00am 8.2 3.6 8.2 100 0.0 N 22 30 12 16 1022.1 1022.2 0.2
27/08:30am 6.8 3.2 6.8 100 0.0 N 15 17 8 9 1022.7 - 0.2
27/08:00am 6.1 1.6 6.1 100 0.0 N 19 22 10 12 1022.9 1023.0 0.2
27/07:30am 6.0 1.5 6.0 100 0.0 N 19 20 10 11 1022.8 - 0.2
27/07:00am 6.2 2.1 6.2 100 0.0 N 17 22 9 12 1022.9 1023.0 0.2
27/06:30am 6.6 2.6 6.6 100 0.0 N 17 22 9 12 1022.9 - 0.2
27/06:00am 6.9 2.6 6.9 100 0.0 N 19 22 10 12 1023.0 1023.1 0.2
27/05:30am 7.3 3.1 7.3 100 0.0 N 19 26 10 14 1022.9 - 0.2
27/05:00am 6.1 1.6 6.1 100 0.0 N 19 24 10 13 1023.3 1023.4 0.2

Other Formats:

Comma delimited format used in spreadsheet applications
http://www.bom.gov.au/fwo/IDV60801/IDV60801.94837.axf

JavaScript Object Notation format (JSON) in row-major order
http://www.bom.gov.au/fwo/IDV60801/IDV60801.94837.json